createdAt,value
2022-07-26T00:04:12.659Z,96128.28
2022-07-26T00:09:16.899Z,96125.03
2022-07-26T00:14:19.946Z,96135.03
2022-07-26T00:19:22.820Z,96140.81
2022-07-26T00:24:29.925Z,96153.22
2022-07-26T00:29:35.313Z,96146.34
2022-07-26T00:34:38.191Z,96134.78
2022-07-26T00:39:43.882Z,96137.47
2022-07-26T00:44:47.806Z,96137.72
2022-07-26T00:49:51.067Z,96142.63
2022-07-26T00:54:56.238Z,96142.75
2022-07-26T01:00:01.168Z,96153.88
2022-07-26T01:05:04.120Z,96141.06
2022-07-26T01:10:12.565Z,96158.88
2022-07-26T01:15:16.728Z,96158.97
2022-07-26T01:20:19.581Z,96155.16
2022-07-26T01:25:32.408Z,96149.63
2022-07-26T01:30:35.291Z,96149.69
2022-07-26T01:35:38.117Z,96146.88
2022-07-26T01:40:42.681Z,96129.69
2022-07-26T01:45:45.747Z,96139.78
2022-07-26T01:50:48.678Z,96144.19
2022-07-26T01:55:52.901Z,96129.38
2022-07-26T02:00:55.549Z,96130.16
2022-07-26T02:05:58.383Z,96133.88
2022-07-26T02:11:03.650Z,96140.25
2022-07-26T02:16:10.245Z,96135.34
2022-07-26T02:21:13.111Z,96143.25
2022-07-26T02:26:17.302Z,96141.41
2022-07-26T02:31:19.992Z,96134.63
2022-07-26T02:36:23.606Z,96136.38
2022-07-26T02:41:27.881Z,96129.56
2022-07-26T02:46:30.566Z,96138.75
2022-07-26T02:51:33.457Z,96132.56
2022-07-26T02:56:37.750Z,96135.13
2022-07-26T03:01:40.831Z,96135.25
2022-07-26T03:06:43.827Z,96133.16
2022-07-26T03:11:48.037Z,96123.66
2022-07-26T03:16:50.865Z,96120.34
2022-07-26T03:21:53.653Z,96113.59
2022-07-26T03:26:57.866Z,96113.59
2022-07-26T03:32:00.725Z,96124.44
2022-07-26T03:37:03.768Z,96112.91
2022-07-26T03:42:08.236Z,96111.03
2022-07-26T03:47:11.230Z,96107.69
2022-07-26T03:52:14.404Z,96107.72
2022-07-26T03:57:18.610Z,96102.97
2022-07-26T04:02:21.820Z,96103.63
2022-07-26T04:07:24.690Z,96096.47
2022-07-26T04:12:31.300Z,96095.78
2022-07-26T04:17:38.087Z,96100.25
2022-07-26T04:22:41.688Z,96099.50
2022-07-26T04:27:46.063Z,96098.72
2022-07-26T04:32:48.919Z,96101.56
2022-07-26T04:37:51.752Z,96101.88
2022-07-26T04:42:56.134Z,96100.97
2022-07-26T04:47:59.319Z,96090.69
2022-07-26T04:53:03.032Z,96091.00
2022-07-26T04:58:07.333Z,96096.69
2022-07-26T05:03:09.999Z,96100.00
2022-07-26T05:08:15.998Z,96109.53
2022-07-26T05:13:23.163Z,96106.13
2022-07-26T05:18:45.830Z,96103.19
2022-07-26T05:23:52.239Z,96108.34
2022-07-26T05:28:56.450Z,96097.09
2022-07-26T05:33:59.336Z,96097.09
2022-07-26T05:39:02.159Z,96104.38
2022-07-26T05:44:06.918Z,96110.81
2022-07-26T05:49:09.970Z,96102.13
2022-07-26T05:54:12.820Z,96114.84
2022-07-26T05:59:17.110Z,96105.06
2022-07-26T06:04:19.797Z,96111.31
2022-07-26T06:09:24.214Z,96110.44
2022-07-26T06:14:28.567Z,96116.59
2022-07-26T06:19:31.228Z,96111.50
2022-07-26T06:24:34.058Z,96113.31
2022-07-26T06:29:38.345Z,96119.16
2022-07-26T06:34:40.949Z,96116.63
2022-07-26T06:39:43.788Z,96113.69
2022-07-26T06:44:47.979Z,96112.34
2022-07-26T06:49:50.785Z,96109.47
2022-07-26T06:54:53.703Z,96108.50
2022-07-26T06:59:57.901Z,96105.53
2022-07-26T07:05:00.618Z,96110.25
2022-07-26T07:10:04.971Z,96110.53
2022-07-26T07:15:11.658Z,96108.53
2022-07-26T07:20:14.499Z,96108.78
2022-07-26T07:25:17.331Z,96109.16
2022-07-26T07:30:27.970Z,96093.28
2022-07-26T07:35:31.610Z,96099.78
2022-07-26T07:40:35.012Z,96094.25
2022-07-26T07:45:39.254Z,96096.94
2022-07-26T07:50:42.108Z,96093.03
2022-07-26T07:55:46.777Z,96080.84
2022-07-26T08:00:51.341Z,96079.91
2022-07-26T08:05:54.292Z,96081.28
2022-07-26T08:10:57.132Z,96069.13
2022-07-26T08:16:01.397Z,96083.72
2022-07-26T08:21:04.540Z,96082.78
2022-07-26T08:26:07.677Z,96077.53
2022-07-26T08:31:12.882Z,96077.13
2022-07-26T08:36:16.397Z,96067.16
2022-07-26T08:41:19.455Z,96073.34
2022-07-26T08:46:27.751Z,96074.00
2022-07-26T08:51:32.447Z,96079.13
2022-07-26T08:56:36.625Z,96082.22
2022-07-26T09:01:53.472Z,96074.47
2022-07-26T09:06:59.209Z,96072.13
2022-07-26T09:12:15.661Z,96064.53
2022-07-26T09:17:21.681Z,96062.28
2022-07-26T09:22:24.503Z,96066.44
2022-07-26T09:27:36.664Z,96059.19
2022-07-26T09:32:40.877Z,96074.94
2022-07-26T09:37:46.639Z,96068.63
2022-07-26T09:42:57.417Z,96072.69
2022-07-26T09:48:01.988Z,96071.34
2022-07-26T09:53:08.697Z,96071.25
2022-07-26T09:58:13.991Z,96073.81
2022-07-26T10:03:18.423Z,96071.66
2022-07-26T10:08:21.576Z,96066.06
2022-07-26T10:13:24.599Z,96058.50
2022-07-26T10:18:45.353Z,96058.56
2022-07-26T10:23:49.305Z,96045.91
2022-07-26T10:28:52.345Z,96044.56
2022-07-26T10:33:57.351Z,96046.19
2022-07-26T10:39:12.281Z,96038.66
2022-07-26T10:44:27.310Z,96031.16
2022-07-26T10:49:33.884Z,96039.03
2022-07-26T10:55:06.138Z,96032.75
2022-07-26T11:00:12.158Z,96026.56
2022-07-26T11:05:18.003Z,96024.75
2022-07-26T11:10:29.045Z,96014.25
2022-07-26T11:15:33.709Z,96004.22
2022-07-26T11:20:37.794Z,96003.31
2022-07-26T11:25:40.672Z,96009.09
2022-07-26T11:30:57.588Z,95993.41
2022-07-26T11:36:01.859Z,95991.09
2022-07-26T11:41:04.737Z,95997.06
2022-07-26T11:46:08.249Z,95978.56
2022-07-26T11:51:14.419Z,95981.03
2022-07-26T11:56:19.177Z,95975.66
2022-07-26T12:01:23.258Z,95967.59
2022-07-26T12:06:29.040Z,95961.28
2022-07-26T12:11:40.179Z,95958.84
2022-07-26T12:16:45.338Z,95952.03
2022-07-26T12:21:51.455Z,95953.88
2022-07-26T12:27:06.370Z,95952.00
2022-07-26T12:32:12.864Z,95937.47
2022-07-26T12:37:18.895Z,95943.91
2022-07-26T12:42:33.134Z,95942.88
2022-07-26T12:47:38.438Z,95948.78
2022-07-26T12:52:43.458Z,95939.06
2022-07-26T12:57:47.515Z,95920.47
2022-07-26T13:02:51.247Z,95920.09
2022-07-26T13:07:55.592Z,95920.13
2022-07-26T13:12:58.554Z,95920.81
2022-07-26T13:18:01.352Z,95911.66
2022-07-26T13:23:05.580Z,95913.06
2022-07-26T13:28:09.761Z,95913.88
2022-07-26T13:33:12.755Z,95905.53
2022-07-26T13:38:19.186Z,95899.63
2022-07-26T13:43:22.088Z,95899.84
2022-07-26T13:48:24.954Z,95898.75
2022-07-26T13:53:30.379Z,95897.97
2022-07-26T13:58:33.381Z,95881.59
2022-07-26T14:03:36.359Z,95886.69
2022-07-26T14:08:40.632Z,95890.69
2022-07-26T14:13:43.501Z,95888.50
2022-07-26T14:18:46.386Z,95885.47
2022-07-26T14:23:51.844Z,95880.75
2022-07-26T14:28:54.721Z,95871.97
2022-07-26T14:33:57.556Z,95876.31
2022-07-26T14:39:01.759Z,95866.72
2022-07-26T14:44:05.175Z,95872.47
2022-07-26T14:49:08.048Z,95871.56
2022-07-26T14:54:14.342Z,95858.59
2022-07-26T14:59:18.081Z,95861.41
2022-07-26T15:04:20.966Z,95868.69
2022-07-26T15:09:25.190Z,95856.69
2022-07-26T15:14:28.015Z,95846.03
2022-07-26T15:19:30.709Z,95838.31
2022-07-26T15:24:39.605Z,95849.44
2022-07-26T15:29:43.200Z,95849.00
2022-07-26T15:34:46.088Z,95847.16
2022-07-26T15:39:51.950Z,95846.78
2022-07-26T15:44:54.915Z,95852.41
2022-07-26T15:49:57.796Z,95856.94
2022-07-26T15:55:02.013Z,95859.59
2022-07-26T16:00:11.689Z,95851.13
2022-07-26T16:05:14.987Z,95849.44
2022-07-26T16:10:19.461Z,95846.34
2022-07-26T16:15:22.280Z,95848.50
2022-07-26T16:20:25.118Z,95843.81
2022-07-26T16:25:29.973Z,95837.75
2022-07-26T16:30:32.961Z,95838.78
2022-07-26T16:35:35.948Z,95833.56
2022-07-26T16:40:40.336Z,95831.16
2022-07-26T16:45:43.223Z,95842.91
2022-07-26T16:50:46.204Z,95834.19
2022-07-26T16:55:51.962Z,95838.50
2022-07-26T17:00:55.071Z,95849.38
2022-07-26T17:06:00.732Z,95831.56
2022-07-26T17:11:07.247Z,95836.84
2022-07-26T17:16:10.190Z,95843.09
2022-07-26T17:21:13.294Z,95840.56
2022-07-26T17:26:18.017Z,95839.44
2022-07-26T17:31:21.148Z,95854.25
2022-07-26T17:36:25.745Z,95858.53
2022-07-26T17:41:33.075Z,95838.22
2022-07-26T17:46:36.651Z,95845.88
2022-07-26T17:51:40.216Z,95844.88
2022-07-26T17:56:44.691Z,95839.66
2022-07-26T18:01:53.794Z,95844.31
2022-07-26T18:06:57.024Z,95840.41
2022-07-26T18:12:01.328Z,95856.19
2022-07-26T18:17:04.241Z,95849.09
2022-07-26T18:22:07.230Z,95848.66
2022-07-26T18:27:11.488Z,95858.50
2022-07-26T18:32:15.261Z,95855.59
2022-07-26T18:37:18.656Z,95845.19
2022-07-26T18:42:22.873Z,95859.25
2022-07-26T18:47:25.877Z,95858.13
2022-07-26T18:52:32.420Z,95852.22
2022-07-26T18:57:37.932Z,95865.69
2022-07-26T19:02:40.834Z,95862.16
2022-07-26T19:07:43.891Z,95856.00
2022-07-26T19:12:48.570Z,95857.59
2022-07-26T19:17:51.777Z,95864.69
2022-07-26T19:22:54.662Z,95864.97
2022-07-26T19:27:58.916Z,95875.81
2022-07-26T19:33:02.311Z,95861.34
2022-07-26T19:38:05.205Z,95871.63
2022-07-26T19:43:09.494Z,95883.09
2022-07-26T19:48:12.381Z,95883.25
2022-07-26T19:53:15.322Z,95890.09
2022-07-26T19:58:19.653Z,95891.16
2022-07-26T20:03:22.538Z,95908.03
2022-07-26T20:08:26.114Z,95907.13
2022-07-26T20:13:30.373Z,95910.91
2022-07-26T20:18:33.104Z,95922.47
2022-07-26T20:23:35.989Z,95926.63
2022-07-26T20:28:40.257Z,95929.97
2022-07-26T20:33:42.870Z,95917.56
2022-07-26T20:38:51.071Z,95922.91
2022-07-26T20:43:56.876Z,95923.56
2022-07-26T20:48:59.922Z,95920.56
2022-07-26T20:54:03.292Z,95925.88
2022-07-26T20:59:07.608Z,95926.53
2022-07-26T21:04:10.299Z,95930.00
2022-07-26T21:09:14.566Z,95936.13
2022-07-26T21:14:19.689Z,95940.34
2022-07-26T21:19:22.653Z,95931.88
2022-07-26T21:24:25.961Z,95942.56
2022-07-26T21:29:30.290Z,95927.50
2022-07-26T21:34:34.326Z,95945.44
2022-07-26T21:39:37.550Z,95929.81
2022-07-26T21:44:41.867Z,95927.47
2022-07-26T21:49:44.700Z,95934.69
2022-07-26T21:54:47.576Z,95937.66
2022-07-26T21:59:51.790Z,95931.16
2022-07-26T22:04:54.644Z,95930.41
2022-07-26T22:09:57.484Z,95933.41
2022-07-26T22:15:01.913Z,95932.25
2022-07-26T22:20:05.475Z,95945.00
2022-07-26T22:25:08.933Z,95940.03
2022-07-26T22:30:13.814Z,95941.25
2022-07-26T22:35:16.633Z,95934.72
2022-07-26T22:40:19.857Z,95948.72
2022-07-26T22:45:24.292Z,95945.53
2022-07-26T22:50:27.928Z,95942.69
2022-07-26T22:55:31.162Z,95948.06
2022-07-26T23:00:35.467Z,95945.22
2022-07-26T23:05:46.362Z,95945.28
2022-07-26T23:10:50.333Z,95950.16
2022-07-26T23:16:00.512Z,95948.88
2022-07-26T23:21:04.607Z,95953.38
2022-07-26T23:26:07.446Z,95953.41
2022-07-26T23:31:12.884Z,95957.69
2022-07-26T23:36:15.930Z,95949.97
2022-07-26T23:41:19.027Z,95953.63
2022-07-26T23:46:23.927Z,95953.88
2022-07-26T23:51:26.981Z,95954.28
2022-07-26T23:56:29.817Z,95961.19
